Time;durP1;ratioP1;P1;durP2;ratioP2;P2;SDS_P1;SDS_P2;PMS_P1;PMS_P2;Temp;Humidity;BMP_temperature;BMP_pressure;BME280_temperature;BME280_humidity;BME280_pressure;Samples;Min_cycle;Max_cycle;Signal;HPM_P1;HPM_P2
2022/10/12 00:00:25;;;;;;;3.30;2.37;;;;;;;18.46;63.11;97221.69;10565384;28;20035;-30
2022/10/12 00:05:25;;;;;;;3.80;2.73;;;;;;;18.51;62.90;97232.72;10558678;28;20330;-34
2022/10/12 00:10:26;;;;;;;4.45;3.22;;;;;;;18.53;65.23;97238.66;10557698;28;20365;-30
2022/10/12 00:15:26;;;;;;;4.47;2.10;;;;;;;18.59;65.31;97237.00;10541982;28;20035;-30
2022/10/12 00:20:27;;;;;;;3.40;2.53;;;;;;;18.60;65.19;97238.69;10564249;28;20048;-31
2022/10/12 00:25:27;;;;;;;3.10;2.10;;;;;;;18.55;63.98;97237.84;10563056;28;20397;-32
2022/10/12 00:30:27;;;;;;;3.03;2.07;;;;;;;18.54;63.86;97233.59;10558554;28;20325;-30
2022/10/12 00:35:28;;;;;;;4.23;2.20;;;;;;;18.52;63.71;97232.75;10558323;28;20032;-31
2022/10/12 00:40:29;;;;;;;2.70;1.80;;;;;;;18.53;64.02;97236.13;10560050;28;20510;-30
2022/10/12 00:45:31;;;;;;;3.67;2.00;;;;;;;18.53;63.38;97231.91;10561611;28;20554;-31
2022/10/12 00:50:34;;;;;;;2.97;2.40;;;;;;;18.51;63.52;97235.25;10564547;28;20485;-31
2022/10/12 00:55:39;;;;;;;2.05;1.70;;;;;;;18.51;64.08;97240.34;10566605;28;20028;-31
2022/10/12 01:00:41;;;;;;;2.08;1.83;;;;;;;18.52;63.17;97239.50;10564455;28;20081;-31
2022/10/12 01:05:41;;;;;;;1.98;1.77;;;;;;;18.46;63.62;97230.16;10566936;28;20115;-31
2022/10/12 01:10:42;;;;;;;5.32;2.13;;;;;;;18.51;63.04;97232.72;10561881;28;20123;-30
2022/10/12 01:15:53;;;;;;;4.37;2.50;;;;;;;18.51;65.20;97236.09;10563670;28;20024;-30
2022/10/12 01:21:20;;;;;;;3.40;2.33;;;;;;;18.59;65.11;97246.31;10571296;28;20297;-30
2022/10/12 01:26:21;;;;;;;2.78;2.47;;;;;;;18.58;64.88;97244.63;10560047;28;20054;-31
2022/10/12 01:31:32;;;;;;;2.37;1.63;;;;;;;18.54;63.70;97247.94;10564785;28;20569;-31
2022/10/12 01:36:39;;;;;;;2.15;1.70;;;;;;;18.52;63.85;97245.44;10563521;28;20442;-30
2022/10/12 01:41:54;;;;;;;3.05;1.60;;;;;;;18.52;63.82;97244.56;10564489;28;20119;-31
2022/10/12 01:46:56;;;;;;;3.13;1.98;;;;;;;18.51;64.21;97238.63;10569480;28;20120;-30
2022/10/12 01:52:08;;;;;;;2.58;1.73;;;;;;;18.50;64.25;97231.03;10563579;28;20024;-31
2022/10/12 01:57:16;;;;;;;4.95;2.20;;;;;;;18.50;63.67;97236.94;10561507;28;20050;-30
2022/10/12 02:02:19;;;;;;;1.98;1.65;;;;;;;18.51;63.95;97232.72;10571772;28;20398;-31
2022/10/12 02:07:43;;;;;;;2.33;1.80;;;;;;;18.51;63.33;97227.66;10560757;28;20413;-31
2022/10/12 02:12:46;;;;;;;3.28;1.73;;;;;;;18.49;63.86;97224.25;10560557;28;20032;-31
2022/10/12 02:17:49;;;;;;;4.25;2.00;;;;;;;18.49;63.84;97225.09;10567540;28;20031;-31
2022/10/12 02:22:51;;;;;;;4.50;2.40;;;;;;;18.52;65.12;97220.06;10563423;28;20046;-30
2022/10/12 02:28:02;;;;;;;2.13;1.75;;;;;;;18.57;65.05;97217.56;10560521;28;20085;-32
2022/10/12 02:33:12;;;;;;;2.03;1.80;;;;;;;18.56;63.93;97231.06;10556783;28;21027;-30
2022/10/12 02:38:19;;;;;;;4.80;2.05;;;;;;;18.52;63.58;97219.22;10567285;28;20366;-31
2022/10/12 02:43:30;;;;;;;1.70;1.60;;;;;;;18.51;63.91;97220.03;10565438;28;20027;-30
2022/10/12 02:48:31;;;;;;;2.63;2.05;;;;;;;18.49;63.93;97209.06;10567453;28;20036;-31
2022/10/12 02:53:32;;;;;;;1.95;1.60;;;;;;;18.46;64.13;97212.41;10564130;28;20028;-31
2022/10/12 02:58:33;;;;;;;3.85;2.03;;;;;;;18.46;64.21;97209.00;10559522;28;20073;-31
2022/10/12 03:03:33;;;;;;;2.58;2.25;;;;;;;18.48;63.90;97213.25;10564666;28;20031;-31
2022/10/12 03:08:34;;;;;;;2.40;1.60;;;;;;;18.49;64.08;97219.19;10562175;28;20046;-33
2022/10/12 03:13:34;;;;;;;2.88;1.58;;;;;;;18.49;63.38;97219.19;10562978;28;20301;-31
2022/10/12 03:18:36;;;;;;;2.05;1.67;;;;;;;18.47;63.99;97215.78;10560830;28;20050;-30
2022/10/12 03:23:36;;;;;;;3.35;1.95;;;;;;;18.48;64.45;97222.53;10564944;28;20036;-31
2022/10/12 03:28:37;;;;;;;3.20;2.33;;;;;;;18.54;64.90;97222.59;10545089;28;20032;-30
2022/10/12 03:33:37;;;;;;;2.80;2.10;;;;;;;18.54;64.96;97228.53;10552290;28;20085;-31
2022/10/12 03:38:37;;;;;;;2.77;1.33;;;;;;;18.52;64.08;97219.22;10564255;28;20337;-31
2022/10/12 03:43:38;;;;;;;4.20;1.93;;;;;;;18.47;63.37;97219.16;10561918;28;20457;-31
2022/10/12 03:48:38;;;;;;;2.33;1.70;;;;;;;18.49;63.29;97230.16;10560875;28;20040;-30
2022/10/12 03:53:39;;;;;;;1.77;1.52;;;;;;;18.48;63.28;97223.41;10559987;28;20090;-30
2022/10/12 03:58:39;;;;;;;2.90;1.93;;;;;;;18.49;64.06;97224.25;10554101;28;20450;-30
2022/10/12 04:03:39;;;;;;;2.72;2.00;;;;;;;18.49;63.91;97231.88;10563583;28;20286;-30
2022/10/12 04:08:40;;;;;;;3.87;1.80;;;;;;;18.48;63.76;97223.41;10560132;28;20024;-31
2022/10/12 04:13:40;;;;;;;3.28;2.13;;;;;;;18.46;64.14;97226.75;10563827;28;20842;-30
2022/10/12 04:18:41;;;;;;;3.60;2.20;;;;;;;18.50;64.24;97225.97;10560364;28;20629;-32
2022/10/12 04:23:42;;;;;;;3.47;2.20;;;;;;;18.50;64.30;97231.03;10543885;28;20062;-30
2022/10/12 04:28:42;;;;;;;4.45;2.65;;;;;;;18.50;64.43;97231.88;10555430;28;20149;-30
2022/10/12 04:33:42;;;;;;;2.43;2.23;;;;;;;18.50;64.77;97231.03;10566236;28;20028;-30
2022/10/12 04:38:43;;;;;;;4.43;2.53;;;;;;;18.48;64.49;97222.53;10570469;28;20028;-30
2022/10/12 04:43:43;;;;;;;8.13;3.03;;;;;;;18.51;63.67;97232.72;10572703;28;20024;-30
2022/10/12 04:48:44;;;;;;;7.05;3.50;;;;;;;18.31;63.09;97230.03;10568059;28;20035;-31
2022/10/12 04:53:44;;;;;;;6.17;3.93;;;;;;;18.29;62.70;97231.69;10570354;28;20429;-31
2022/10/12 04:58:45;;;;;;;6.53;3.10;;;;;;;18.38;62.77;97233.44;10548319;28;20317;-30
2022/10/12 05:03:45;;;;;;;3.08;2.72;;;;;;;18.44;63.10;97236.03;10552903;28;20637;-30
2022/10/12 05:08:45;;;;;;;9.13;3.40;;;;;;;18.43;62.91;97245.31;10563094;28;20532;-30
2022/10/12 05:13:46;;;;;;;8.47;2.40;;;;;;;18.45;62.37;97237.75;10568270;28;20028;-30
2022/10/12 05:18:46;;;;;;;5.23;4.17;;;;;;;18.49;62.76;97234.41;10565629;28;20286;-29
2022/10/12 05:23:51;;;;;;;4.50;3.28;;;;;;;18.41;62.60;97225.88;10564021;28;20281;-30
2022/10/12 05:28:51;;;;;;;7.35;2.97;;;;;;;18.35;62.54;97208.09;10564918;28;20039;-30
2022/10/12 05:33:52;;;;;;;8.03;3.27;;;;;;;18.39;62.35;97227.53;10559971;28;20034;-30
2022/10/12 05:38:52;;;;;;;8.52;3.05;;;;;;;18.40;63.62;97221.66;10570005;28;20788;-30
2022/10/12 05:43:52;;;;;;;14.43;3.30;;;;;;;18.46;63.97;97229.28;10561468;28;20031;-31
2022/10/12 05:48:53;;;;;;;8.57;3.10;;;;;;;18.45;64.08;97232.66;10566205;28;20028;-30
2022/10/12 05:53:53;;;;;;;7.27;2.73;;;;;;;18.38;64.00;97230.91;10567474;28;20829;-31
2022/10/12 05:58:53;;;;;;;6.57;2.13;;;;;;;18.47;63.73;97247.06;10564301;28;20285;-31
2022/10/12 06:03:54;;;;;;;4.37;2.70;;;;;;;18.42;62.98;97232.66;10564987;28;20042;-31
2022/10/12 06:08:55;;;;;;;4.13;2.97;;;;;;;18.47;63.34;97246.19;10563152;28;20508;-30
2022/10/12 06:13:55;;;;;;;5.53;2.67;;;;;;;18.48;63.06;97258.03;10562273;28;20444;-32
2022/10/12 06:18:55;;;;;;;4.77;2.70;;;;;;;18.46;63.03;97247.91;10563878;28;20412;-30
2022/10/12 06:23:56;;;;;;;6.10;2.75;;;;;;;18.48;63.33;97240.28;10561393;28;20024;-30
2022/10/12 06:28:56;;;;;;;5.10;2.50;;;;;;;18.48;63.32;97246.22;10561844;28;20482;-30
2022/10/12 06:33:57;;;;;;;6.70;2.60;;;;;;;18.47;63.37;97242.00;10563013;28;20055;-30
2022/10/12 06:38:57;;;;;;;4.50;2.60;;;;;;;18.39;64.16;97230.06;10567530;28;20031;-30
2022/10/12 06:43:57;;;;;;;4.97;3.37;;;;;;;18.45;64.04;97238.59;10564686;28;20034;-32
2022/10/12 06:48:58;;;;;;;4.33;2.50;;;;;;;18.48;64.00;97237.75;10562712;28;20706;-30
2022/10/12 06:53:58;;;;;;;4.47;2.27;;;;;;;18.42;64.19;97227.59;10563586;28;20289;-31
2022/10/12 06:58:59;;;;;;;2.63;2.37;;;;;;;18.46;63.97;97225.09;10560982;28;20321;-32
2022/10/12 07:03:59;;;;;;;4.73;2.60;;;;;;;18.43;63.67;97232.66;10561600;28;20294;-31
2022/10/12 07:09:00;;;;;;;3.13;2.30;;;;;;;18.44;63.63;97226.75;10560775;28;20478;-31
2022/10/12 07:14:01;;;;;;;3.60;2.67;;;;;;;18.44;63.67;97236.03;10559139;28;20297;-32
2022/10/12 07:19:01;;;;;;;5.13;2.33;;;;;;;18.46;63.36;97239.44;10561876;28;20035;-31
2022/10/12 07:24:02;;;;;;;3.13;2.40;;;;;;;18.45;63.45;97241.13;10558816;28;20285;-31
2022/10/12 07:29:02;;;;;;;5.55;2.38;;;;;;;18.46;63.31;97244.50;10563598;28;20297;-30
2022/10/12 07:34:03;;;;;;;3.20;2.30;;;;;;;18.46;63.17;97244.50;10563743;28;20121;-31
2022/10/12 07:39:03;;;;;;;2.80;2.38;;;;;;;18.46;63.81;97244.50;10565559;28;20503;-31
2022/10/12 07:44:03;;;;;;;4.00;2.30;;;;;;;18.45;64.02;97247.88;10562184;28;20027;-30
2022/10/12 07:49:04;;;;;;;2.25;2.05;;;;;;;18.45;64.25;97250.41;10559813;28;20350;-31
2022/10/12 07:54:04;;;;;;;5.93;2.70;;;;;;;18.47;64.12;97253.81;10561529;28;20535;-32
2022/10/12 07:59:05;;;;;;;2.63;1.70;;;;;;;18.48;64.06;97242.81;10557535;28;20034;-29
2022/10/12 08:04:05;;;;;;;2.92;2.00;;;;;;;18.45;63.49;97250.41;10560248;28;20031;-30
2022/10/12 08:09:06;;;;;;;3.13;2.17;;;;;;;18.45;63.78;97247.88;10561627;28;20377;-30
2022/10/12 08:14:12;;;;;;;5.73;2.50;;;;;;;18.44;63.90;97246.19;10560528;28;20032;-31
2022/10/12 08:19:13;;;;;;;2.92;2.15;;;;;;;18.43;63.64;97245.31;10560939;28;20031;-31
2022/10/12 08:24:13;;;;;;;4.45;2.33;;;;;;;18.45;63.79;97248.75;10557260;28;20400;-31
2022/10/12 08:29:14;;;;;;;3.43;1.93;;;;;;;18.44;63.09;97247.06;10562686;28;20023;-30
2022/10/12 08:34:15;;;;;;;4.10;2.60;;;;;;;18.44;63.97;97246.19;10559667;28;20632;-31
2022/10/12 08:39:17;;;;;;;2.85;2.05;;;;;;;18.44;63.50;97241.13;10562711;28;20360;-30
2022/10/12 08:44:39;;;;;;;3.70;1.98;;;;;;;18.45;63.67;97245.34;10557940;28;20084;-32
2022/10/12 08:49:41;;;;;;;2.03;1.83;;;;;;;18.47;64.27;97236.91;10557756;28;20040;-30
2022/10/12 08:54:44;;;;;;;3.45;2.15;;;;;;;18.51;64.12;97235.25;10553187;28;20028;-32
2022/10/12 08:59:45;;;;;;;2.10;1.90;;;;;;;18.49;64.09;97239.47;10569560;28;20076;-30
2022/10/12 09:05:02;;;;;;;4.07;2.20;;;;;;;18.49;63.78;97229.34;10557968;28;20036;-30
2022/10/12 09:10:09;;;;;;;2.63;2.13;;;;;;;18.45;63.77;97231.00;10562678;28;20035;-32
2022/10/12 09:15:32;;;;;;;2.33;2.13;;;;;;;18.44;63.89;97231.84;10561460;28;20391;-31
2022/10/12 09:20:45;;;;;;;2.63;1.85;;;;;;;18.45;63.90;97227.59;10570652;28;20028;-31
2022/10/12 09:25:46;;;;;;;2.80;2.25;;;;;;;18.44;64.11;97230.97;10564414;28;20042;-31
2022/10/12 09:31:08;;;;;;;2.08;1.80;;;;;;;18.42;63.89;97227.59;10562779;28;20588;-30
2022/10/12 09:36:14;;;;;;;4.30;2.10;;;;;;;18.45;64.06;97237.75;10562787;28;20020;-31
2022/10/12 09:41:20;;;;;;;4.30;2.50;;;;;;;18.46;63.80;97234.38;10565143;28;20105;-30
2022/10/12 09:46:34;;;;;;;3.65;2.03;;;;;;;18.45;63.97;97235.19;10570026;28;20032;-31
2022/10/12 09:51:34;;;;;;;2.65;1.80;;;;;;;18.49;64.01;97242.00;10567393;28;20043;-31
2022/10/12 09:56:45;;;;;;;3.70;1.88;;;;;;;18.54;63.94;97247.94;10564844;28;20031;-31
2022/10/12 10:02:10;;;;;;;1.90;1.80;;;;;;;18.55;63.86;97249.66;10568218;28;20397;-31
2022/10/12 10:07:19;;;;;;;2.75;2.22;;;;;;;18.53;63.79;97246.25;10562321;28;20067;-31
2022/10/12 10:12:25;;;;;;;2.30;2.10;;;;;;;18.48;63.66;97247.88;10567159;28;20439;-31
2022/10/12 10:17:27;;;;;;;;;;;;;;;18.44;63.65;97241.97;10567596;28;20050;-31
2022/10/12 10:22:28;;;;;;;2.25;1.73;;;;;;;18.42;63.90;97237.72;10564424;28;19911;-31
2022/10/12 10:27:36;;;;;;;7.30;2.10;;;;;;;18.36;64.06;97240.19;10568058;28;20096;-31
2022/10/12 10:32:36;;;;;;;22.08;3.97;;;;;;;18.44;64.04;97236.03;10564990;28;20032;-30
2022/10/12 10:37:43;;;;;;;4.50;2.37;;;;;;;18.45;64.08;97242.81;10557847;28;20024;-31
2022/10/12 10:42:50;;;;;;;6.03;2.50;;;;;;;18.46;64.21;97236.91;10557329;28;20284;-30
2022/10/12 10:47:59;;;;;;;7.00;2.22;;;;;;;18.46;64.21;97234.38;10560454;28;20111;-30
2022/10/12 10:53:12;;;;;;;6.20;2.13;;;;;;;18.46;64.21;97231.81;10559975;28;20059;-31
2022/10/12 10:58:25;;;;;;;3.10;2.40;;;;;;;18.48;64.57;97233.53;10557181;28;20401;-31
2022/10/12 11:03:44;;;;;;;6.60;3.67;;;;;;;18.52;64.50;97227.69;10563690;28;20077;-30
2022/10/12 11:08:50;;;;;;;6.97;3.17;;;;;;;18.51;64.33;97230.19;10558391;28;20032;-30
2022/10/12 11:14:24;;;;;;;8.43;3.97;;;;;;;18.48;64.44;97222.53;10558345;28;20481;-31
2022/10/12 11:19:50;;;;;;;9.32;4.35;;;;;;;18.46;64.44;97219.16;10540831;28;20040;-30
2022/10/12 11:25:00;;;;;;;6.90;4.20;;;;;;;18.41;64.47;97206.44;10564569;28;20448;-31
2022/10/12 11:30:05;;;;;;;8.05;4.20;;;;;;;18.48;64.57;97207.31;10560061;28;20554;-32
2022/10/12 11:35:12;;;;;;;4.68;3.05;;;;;;;18.49;63.68;97214.13;10562674;28;20488;-30
2022/10/12 11:40:47;;;;;;;8.13;3.65;;;;;;;18.50;64.07;97214.13;10562589;28;20031;-30
2022/10/12 11:45:51;;;;;;;6.63;3.63;;;;;;;18.50;63.61;97210.75;10560667;28;20123;-30
2022/10/12 11:50:55;;;;;;;7.57;3.92;;;;;;;18.50;64.29;97213.28;10562211;28;20481;-31
2022/10/12 11:56:03;;;;;;;8.77;4.55;;;;;;;18.49;64.94;97209.06;10562630;28;20508;-31
2022/10/12 12:01:19;;;;;;;10.30;5.05;;;;;;;18.52;66.01;97204.84;10559536;28;20111;-31
2022/10/12 12:06:29;;;;;;;10.77;6.03;;;;;;;18.52;65.79;97202.31;10558004;28;20046;-31
2022/10/12 12:11:31;;;;;;;11.90;4.70;;;;;;;18.60;65.14;97199.81;10553816;28;20028;-31
2022/10/12 12:16:32;;;;;;;13.07;4.57;;;;;;;18.58;65.54;97198.97;10555137;28;20457;-31
2022/10/12 12:22:11;;;;;;;9.15;4.55;;;;;;;18.54;65.18;97203.16;10561004;28;20041;-31
2022/10/12 12:27:32;;;;;;;16.90;5.28;;;;;;;18.53;65.64;97203.16;10551205;28;20035;-31
2022/10/12 12:32:58;;;;;;;15.95;5.45;;;;;;;18.51;65.92;97194.69;10553732;28;20040;-31
2022/10/12 12:38:06;;;;;;;11.75;4.63;;;;;;;18.51;65.95;97194.69;10567127;28;20024;-30
2022/10/12 12:43:28;;;;;;;15.75;4.70;;;;;;;18.49;66.05;97194.66;10553838;28;20023;-31
2022/10/12 12:48:37;;;;;;;15.13;6.30;;;;;;;18.52;65.91;97188.78;10568457;28;20039;-32
2022/10/12 12:53:46;;;;;;;28.42;6.18;;;;;;;18.49;65.26;97186.22;10570513;28;20028;-30
2022/10/12 12:59:20;;;;;;;21.88;5.60;;;;;;;18.56;66.60;97185.41;10559444;28;20028;-32
2022/10/12 13:04:51;;;;;;;12.30;5.90;;;;;;;18.60;66.36;97171.94;10568268;28;20031;-32
2022/10/12 13:10:03;;;;;;;19.48;7.07;;;;;;;18.60;66.47;97174.47;10564519;28;20455;-30
2022/10/12 13:15:28;;;;;;;18.70;5.45;;;;;;;18.64;66.19;97164.34;10558685;28;20055;-31
2022/10/12 13:20:33;;;;;;;18.15;5.68;;;;;;;18.60;65.82;97162.63;10566398;28;20204;-30
2022/10/12 13:26:03;;;;;;;16.42;6.15;;;;;;;18.59;65.53;97160.09;10570172;27;20036;-32
2022/10/12 13:31:12;;;;;;;15.18;4.93;;;;;;;18.56;64.68;97149.91;10559934;28;20122;-30
2022/10/12 13:36:24;;;;;;;10.55;4.78;;;;;;;18.52;64.98;97138.06;10566390;28;20043;-32
2022/10/12 13:41:29;;;;;;;11.32;4.57;;;;;;;18.58;64.76;97140.66;10567864;28;20028;-30
2022/10/12 13:46:47;;;;;;;10.55;4.93;;;;;;;18.52;65.16;97133.00;10570789;28;20190;-31
2022/10/12 13:51:59;;;;;;;9.70;5.00;;;;;;;18.52;65.10;97123.72;10556332;28;20027;-30
2022/10/12 13:57:03;;;;;;;14.00;5.30;;;;;;;18.59;64.47;97134.72;10563334;28;20507;-32
2022/10/12 14:02:16;;;;;;;11.05;5.50;;;;;;;18.60;64.17;97136.44;10564312;28;20124;-30
2022/10/12 14:07:24;;;;;;;17.73;5.60;;;;;;;18.69;65.01;97142.41;10558895;27;20393;-31
2022/10/12 14:12:28;;;;;;;19.80;7.30;;;;;;;18.72;66.70;97122.13;10565905;28;20034;-30
2022/10/12 14:17:28;;;;;;;9.73;5.68;;;;;;;18.74;64.85;97129.75;10559993;28;20080;-30
2022/10/12 14:22:32;;;;;;;12.70;5.82;;;;;;;18.86;64.51;97134.88;10563059;28;20031;-30
2022/10/12 14:27:33;;;;;;;10.45;4.93;;;;;;;18.77;62.41;97129.75;10562902;28;20464;-31
2022/10/12 14:32:33;;;;;;;9.40;6.25;;;;;;;18.74;63.41;97129.75;10564337;28;20305;-31
2022/10/12 14:37:33;;;;;;;7.93;3.57;;;;;;;18.72;63.05;97127.19;10560365;28;20019;-31
2022/10/12 14:42:35;;;;;;;5.90;3.23;;;;;;;18.70;62.38;97123.81;10564648;28;20053;-30
2022/10/12 14:47:41;;;;;;;9.20;4.05;;;;;;;18.68;63.34;97117.88;10542540;28;20725;-31
2022/10/12 14:52:44;;;;;;;11.70;4.78;;;;;;;18.68;63.32;97124.66;10526731;27;20040;-33
2022/10/12 14:57:46;;;;;;;8.15;2.72;;;;;;;18.66;62.14;97121.25;10529307;28;20030;-32
2022/10/12 15:02:46;;;;;;;7.70;3.47;;;;;;;18.63;62.21;97119.53;10528423;28;20088;-31
2022/10/12 15:07:48;;;;;;;8.00;3.45;;;;;;;18.68;62.84;97124.66;10513160;27;20444;-31
2022/10/12 15:12:49;;;;;;;9.25;5.82;;;;;;;18.69;65.19;97116.19;10522491;28;20066;-31
2022/10/12 15:17:49;;;;;;;7.63;5.45;;;;;;;18.67;66.37;97117.88;10524263;28;20034;-32
2022/10/12 15:22:50;;;;;;;10.63;5.27;;;;;;;18.70;65.98;97118.75;10530619;28;20668;-31
2022/10/12 15:27:50;;;;;;;12.77;6.73;;;;;;;18.67;65.52;97118.72;10530729;28;20502;-30
2022/10/12 15:32:51;;;;;;;9.68;4.30;;;;;;;18.70;63.96;97125.50;10529153;28;20073;-31
2022/10/12 15:37:55;;;;;;;4.53;3.85;;;;;;;18.68;64.61;97124.66;10523459;28;20032;-31
2022/10/12 15:42:56;;;;;;;17.40;5.90;;;;;;;18.64;65.39;97127.97;10557858;28;20401;-31
2022/10/12 15:47:56;;;;;;;11.98;5.32;;;;;;;18.55;65.72;97117.78;10560495;28;20032;-32
2022/10/12 15:52:57;;;;;;;9.02;4.90;;;;;;;18.50;65.04;97110.16;10548987;28;20024;-31
2022/10/12 15:57:58;;;;;;;10.87;4.63;;;;;;;18.51;64.93;97093.28;10549150;28;20542;-31
2022/10/12 16:03:00;;;;;;;12.93;5.15;;;;;;;18.55;64.45;97103.44;10538925;28;20118;-30
2022/10/12 16:08:02;;;;;;;6.75;4.70;;;;;;;18.58;64.08;97102.63;10544343;28;20039;-31
2022/10/12 16:13:05;;;;;;;7.82;4.53;;;;;;;18.61;64.01;97112.75;10538512;28;20035;-31
2022/10/12 16:18:05;;;;;;;13.10;6.15;;;;;;;18.58;65.88;97105.16;10553705;28;20066;-31
2022/10/12 16:23:11;;;;;;;13.75;5.32;;;;;;;18.61;66.30;97117.84;10555836;28;20532;-31
2022/10/12 16:28:12;;;;;;;10.67;4.80;;;;;;;18.63;65.24;97126.28;10554415;28;20057;-30
2022/10/12 16:33:12;;;;;;;11.95;5.05;;;;;;;18.58;65.08;97125.44;10547248;27;20296;-30
2022/10/12 16:38:13;;;;;;;9.20;5.33;;;;;;;18.60;64.57;97132.19;10548421;28;20101;-30
2022/10/12 16:43:14;;;;;;;8.52;4.28;;;;;;;18.61;64.06;97117.84;10560061;28;20289;-31
2022/10/12 16:48:14;;;;;;;5.95;3.80;;;;;;;18.61;64.35;97130.50;10551094;28;20396;-31
2022/10/12 16:53:15;;;;;;;8.00;3.93;;;;;;;18.60;64.24;97126.28;10551032;28;20032;-32
2022/10/12 16:58:15;;;;;;;5.47;3.73;;;;;;;18.61;64.10;97133.06;10564819;28;20057;-31
2022/10/12 17:03:16;;;;;;;6.63;4.18;;;;;;;18.60;64.04;97129.66;10553568;28;20032;-30
2022/10/12 17:08:16;;;;;;;6.10;4.20;;;;;;;18.58;64.30;97140.66;10554182;28;20107;-31
2022/10/12 17:13:16;;;;;;;8.83;4.70;;;;;;;18.49;63.89;97125.38;10571371;28;20269;-30
2022/10/12 17:18:17;;;;;;;9.37;4.03;;;;;;;18.59;63.87;97135.56;10567678;28;20024;-31
2022/10/12 17:23:17;;;;;;;14.18;5.45;;;;;;;18.64;67.58;97138.13;10563542;28;20516;-30
2022/10/12 17:28:17;;;;;;;14.73;5.37;;;;;;;18.64;68.00;97128.84;10552138;28;20032;-30
2022/10/12 17:33:18;;;;;;;8.83;4.43;;;;;;;18.60;65.77;97131.34;10571153;28;20050;-31
2022/10/12 17:38:18;;;;;;;7.70;3.93;;;;;;;18.62;64.56;97147.41;10564337;28;20030;-30
2022/10/12 17:43:19;;;;;;;4.23;3.20;;;;;;;18.62;63.95;97160.09;10566493;28;20352;-30
2022/10/12 17:48:19;;;;;;;4.83;3.50;;;;;;;18.59;63.51;97155.84;10569189;28;20032;-30
2022/10/12 17:53:23;;;;;;;4.70;3.60;;;;;;;18.56;63.59;97160.06;10563648;28;20668;-31
2022/10/12 17:58:23;;;;;;;4.80;3.37;;;;;;;18.62;63.38;97186.31;10565390;28;20031;-31
2022/10/12 18:03:25;;;;;;;5.90;3.53;;;;;;;18.64;64.33;97181.25;10564816;28;20019;-31
2022/10/12 18:08:26;;;;;;;9.18;3.85;;;;;;;18.60;63.87;97192.22;10565083;28;20158;-30
2022/10/12 18:13:27;;;;;;;7.23;3.40;;;;;;;18.63;64.25;97197.31;10555474;28;20039;-30
2022/10/12 18:18:28;;;;;;;4.80;3.33;;;;;;;18.62;63.08;97198.13;10550481;28;20772;-31
2022/10/12 18:23:28;;;;;;;7.32;3.55;;;;;;;18.62;63.34;97199.00;10558848;28;20032;-32
2022/10/12 18:28:28;;;;;;;6.90;4.17;;;;;;;18.65;66.55;97215.91;10550995;28;20081;-30
2022/10/12 18:33:29;;;;;;;6.73;3.90;;;;;;;18.66;66.65;97222.69;10562421;28;20027;-30
2022/10/12 18:38:31;;;;;;;7.22;3.88;;;;;;;18.62;66.32;97214.22;10563592;28;20039;-30
2022/10/12 18:43:31;;;;;;;6.72;4.53;;;;;;;18.58;66.24;97207.41;10556819;28;20039;-30
2022/10/12 18:48:32;;;;;;;9.50;3.90;;;;;;;18.60;64.09;97208.25;10557614;28;20505;-31
2022/10/12 18:53:33;;;;;;;5.25;3.30;;;;;;;18.61;64.00;97209.13;10554191;28;20032;-31
2022/10/12 18:58:33;;;;;;;5.90;3.13;;;;;;;18.60;63.50;97203.19;10553669;28;20408;-31
2022/10/12 19:03:34;;;;;;;4.17;2.70;;;;;;;18.55;63.70;97189.66;10555261;28;20040;-30
2022/10/12 19:08:35;;;;;;;4.85;3.00;;;;;;;18.56;63.65;97182.88;10556600;28;20305;-30
2022/10/12 19:13:36;;;;;;;5.60;3.50;;;;;;;18.60;63.71;97192.22;10557708;28;20058;-31
2022/10/12 19:18:38;;;;;;;3.90;3.00;;;;;;;18.59;63.80;97196.44;10555838;28;20034;-31
2022/10/12 19:23:41;;;;;;;5.50;3.60;;;;;;;18.60;63.54;97199.81;10554334;28;20107;-30
2022/10/12 19:28:43;;;;;;;8.63;3.47;;;;;;;18.60;65.10;97197.28;10552113;28;20032;-32
2022/10/12 19:33:43;;;;;;;5.85;3.60;;;;;;;18.63;66.18;97202.38;10555555;28;20417;-31
2022/10/12 19:38:45;;;;;;;8.77;4.35;;;;;;;18.65;67.03;97195.63;10557799;28;20035;-31
2022/10/12 19:43:46;;;;;;;7.28;2.83;;;;;;;18.63;65.80;97200.69;10558731;28;20501;-31
2022/10/12 19:48:51;;;;;;;6.75;3.92;;;;;;;18.59;65.58;97205.75;10554382;28;20424;-30
2022/10/12 19:53:57;;;;;;;3.80;2.92;;;;;;;18.56;65.40;97208.22;10555737;28;20028;-31
2022/10/12 19:58:57;;;;;;;4.35;3.63;;;;;;;18.54;65.96;97213.31;10556172;28;20520;-30
2022/10/12 20:03:58;;;;;;;5.53;4.00;;;;;;;18.55;65.36;97214.16;10559410;28;20117;-31
2022/10/12 20:09:01;;;;;;;3.20;2.90;;;;;;;18.54;65.37;97212.44;10560353;28;20029;-30
2022/10/12 20:14:01;;;;;;;3.80;3.35;;;;;;;18.52;65.93;97220.06;10562274;28;20065;-30
2022/10/12 20:19:03;;;;;;;4.18;2.90;;;;;;;18.45;65.71;97212.38;10557694;28;20088;-30
2022/10/12 20:24:07;;;;;;;3.50;2.90;;;;;;;18.51;65.61;97223.41;10559630;28;20030;-30
2022/10/12 20:29:08;;;;;;;3.53;3.03;;;;;;;18.50;65.64;97231.88;10562921;28;20519;-30
2022/10/12 20:34:08;;;;;;;6.80;4.53;;;;;;;18.53;67.70;97231.03;10560351;28;20050;-31
2022/10/12 20:39:09;;;;;;;4.68;3.25;;;;;;;18.55;67.83;97235.28;10559119;28;20812;-30
2022/10/12 20:44:09;;;;;;;4.03;2.90;;;;;;;18.60;67.54;97227.72;10564401;28;20541;-31
2022/10/12 20:49:10;;;;;;;5.13;3.25;;;;;;;18.57;66.08;97226.00;10554524;28;20035;-32
2022/10/12 20:54:14;;;;;;;5.35;3.22;;;;;;;18.55;65.19;97220.09;10564691;28;20028;-31
2022/10/12 20:59:14;;;;;;;3.45;3.13;;;;;;;18.54;65.67;97214.97;10543662;28;20028;-31
2022/10/12 21:04:15;;;;;;;4.03;2.40;;;;;;;18.52;65.53;97209.06;10562891;28;20075;-31
2022/10/12 21:09:15;;;;;;;5.13;3.27;;;;;;;18.47;65.90;97200.56;10566071;28;20043;-31
2022/10/12 21:14:15;;;;;;;5.10;3.15;;;;;;;18.46;65.64;97198.88;10568042;28;20088;-31
2022/10/12 21:19:16;;;;;;;5.57;3.20;;;;;;;18.45;65.88;97203.09;10567758;28;20371;-31
2022/10/12 21:24:17;;;;;;;3.17;2.88;;;;;;;18.51;65.07;97218.34;10565307;28;20080;-31
2022/10/12 21:29:17;;;;;;;4.13;3.08;;;;;;;18.50;65.71;97223.44;10565330;28;20047;-31
2022/10/12 21:34:18;;;;;;;3.15;2.70;;;;;;;18.50;65.55;97215.81;10567192;28;20508;-30
2022/10/12 21:39:19;;;;;;;2.92;2.67;;;;;;;18.50;66.97;97206.50;10572350;28;20605;-30
2022/10/12 21:44:19;;;;;;;3.63;2.92;;;;;;;18.56;67.45;97205.69;10560156;28;20023;-30
2022/10/12 21:49:20;;;;;;;3.60;3.23;;;;;;;18.54;67.22;97187.97;10566347;28;20048;-30
2022/10/12 21:54:20;;;;;;;4.22;2.95;;;;;;;18.57;65.68;97189.66;10564296;28;20294;-32
2022/10/12 21:59:21;;;;;;;2.63;2.40;;;;;;;18.53;65.51;97204.00;10566260;28;20443;-31
2022/10/12 22:04:21;;;;;;;4.57;3.23;;;;;;;18.51;64.79;97195.53;10564202;28;20389;-30
2022/10/12 22:09:21;;;;;;;2.63;2.43;;;;;;;18.51;65.42;97192.16;10563535;28;20455;-31
2022/10/12 22:14:22;;;;;;;5.10;3.03;;;;;;;18.50;65.30;97187.94;10566538;28;20285;-30
2022/10/12 22:19:22;;;;;;;3.77;2.67;;;;;;;18.51;65.36;97187.09;10564525;28;20020;-30
2022/10/12 22:24:23;;;;;;;2.70;2.50;;;;;;;18.47;65.05;97181.13;10560706;28;20277;-31
2022/10/12 22:29:23;;;;;;;3.57;2.80;;;;;;;18.51;65.39;97192.16;10558884;28;20519;-31
2022/10/12 22:34:23;;;;;;;3.30;2.53;;;;;;;18.48;65.25;97176.91;10564026;28;20395;-31
2022/10/12 22:39:24;;;;;;;2.80;2.60;;;;;;;18.44;65.00;97172.66;10564401;28;20392;-31
2022/10/12 22:44:25;;;;;;;3.80;2.80;;;;;;;18.51;66.70;97187.91;10559810;28;20482;-30
2022/10/12 22:49:27;;;;;;;2.92;2.30;;;;;;;18.58;66.57;97176.16;10555538;28;20032;-30
2022/10/12 22:54:28;;;;;;;2.87;2.40;;;;;;;18.60;66.21;97189.69;10566210;28;20035;-31
2022/10/12 22:59:28;;;;;;;3.10;2.30;;;;;;;18.55;65.23;97181.19;10560741;28;20286;-31
2022/10/12 23:04:28;;;;;;;2.73;2.40;;;;;;;18.53;65.02;97185.41;10562617;28;20273;-30
2022/10/12 23:09:29;;;;;;;2.67;2.30;;;;;;;18.52;64.97;97178.63;10563292;28;20028;-31
2022/10/12 23:14:30;;;;;;;2.67;2.38;;;;;;;18.50;64.91;97181.16;10555413;28;20293;-30
2022/10/12 23:19:30;;;;;;;4.40;3.00;;;;;;;18.48;65.04;97176.91;10564294;28;20319;-31
2022/10/12 23:24:31;;;;;;;2.77;2.20;;;;;;;18.49;64.80;97178.63;10560327;28;20536;-31
2022/10/12 23:29:31;;;;;;;3.57;2.60;;;;;;;18.49;65.33;97181.16;10561982;28;20484;-30